Time;durP1;ratioP1;P1;durP2;ratioP2;P2;SDS_P1;SDS_P2;PMS_P1;PMS_P2;Temp;Humidity;BMP_temperature;BMP_pressure;BME280_temperature;BME280_humidity;BME280_pressure;Samples;Min_cycle;Max_cycle;Signal;HPM_P1;HPM_P2
2021/05/04 00:00:23;;;;;;;0.60;0.60;;;;;;;7.14;53.05;96573.09;29395;209;63009;-52
2021/05/04 00:00:55;;;;;;;0.60;0.60;;;;;;;7.12;52.69;96570.69;29395;207;63005;-55
2021/05/04 00:01:26;;;;;;;0.60;0.60;;;;;;;7.10;52.82;96567.47;29395;230;63009;-52
2021/05/04 00:01:57;;;;;;;0.60;0.60;;;;;;;7.14;53.09;96568.53;29395;224;63005;-56
2021/05/04 00:02:29;;;;;;;0.60;0.60;;;;;;;7.13;52.98;96569.59;29395;198;63009;-55
2021/05/04 00:03:00;;;;;;;0.60;0.60;;;;;;;7.15;53.12;96564.75;29394;250;64009;-56
2021/05/04 00:03:31;;;;;;;0.60;0.60;;;;;;;7.16;52.71;96569.06;29395;217;63009;-55
2021/05/04 00:04:03;;;;;;;0.60;0.60;;;;;;;7.14;52.93;96568.53;29395;222;63004;-55
2021/05/04 00:04:34;;;;;;;0.60;0.60;;;;;;;7.12;52.83;96559.91;29395;303;63009;-50
2021/05/04 00:05:07;;;;;;;0.60;0.60;;;;;;;7.12;53.00;96562.59;29395;203;63004;-55
2021/05/04 00:05:38;;;;;;;0.60;0.60;;;;;;;7.09;52.85;96568.53;29395;321;63008;-56
2021/05/04 00:06:10;;;;;;;0.60;0.60;;;;;;;7.13;53.31;96566.09;29395;218;63004;-55
2021/05/04 00:06:41;;;;;;;0.60;0.60;;;;;;;7.16;53.03;96565.53;29395;203;63009;-57
2021/05/04 00:07:12;;;;;;;0.60;0.60;;;;;;;7.12;53.12;96562.59;29395;222;63005;-55
2021/05/04 00:07:43;;;;;;;0.60;0.60;;;;;;;7.12;52.97;96559.91;29395;214;63009;-55
2021/05/04 00:08:15;;;;;;;0.60;0.60;;;;;;;7.10;53.24;96561.25;29394;320;64009;-56
2021/05/04 00:08:46;;;;;;;0.60;0.60;;;;;;;7.10;53.33;96558.56;29395;200;63019;-56
2021/05/04 00:09:17;;;;;;;0.60;0.60;;;;;;;7.08;53.16;96558.84;29395;302;63005;-56
2021/05/04 00:09:48;;;;;;;0.60;0.60;;;;;;;7.08;53.20;96558.84;29395;235;63009;-56
2021/05/04 00:10:20;;;;;;;0.60;0.60;;;;;;;7.06;53.44;96556.41;29395;225;63005;-56
2021/05/04 00:10:52;;;;;;;0.60;0.60;;;;;;;7.06;53.52;96563.69;29394;197;64013;-55
2021/05/04 00:11:23;;;;;;;0.60;0.60;;;;;;;7.07;53.34;96562.63;29395;384;63004;-55
2021/05/04 00:11:54;;;;;;;0.60;0.60;;;;;;;7.09;53.29;96554.25;29395;302;63009;-55
2021/05/04 00:12:27;;;;;;;0.60;0.60;;;;;;;7.06;53.57;96555.59;29395;226;63004;-53
2021/05/04 00:13:00;;;;;;;0.60;0.60;;;;;;;7.07;53.54;96562.63;29395;206;63008;-54
2021/05/04 00:13:31;;;;;;;0.60;0.60;;;;;;;7.09;53.64;96555.06;29395;210;63004;-56
2021/05/04 00:14:03;;;;;;;0.60;0.60;;;;;;;7.09;53.29;96560.44;29395;203;63009;-55
2021/05/04 00:14:35;;;;;;;0.70;0.70;;;;;;;7.06;53.61;96566.41;29395;230;63005;-54
2021/05/04 00:15:09;;;;;;;0.65;0.65;;;;;;;7.12;53.67;96554.50;29395;200;63009;-55
2021/05/04 00:15:40;;;;;;;0.60;0.60;;;;;;;7.16;53.52;96555.56;29394;202;64009;-56
2021/05/04 00:16:11;;;;;;;0.60;0.60;;;;;;;7.14;53.08;96556.91;29395;212;63009;-55
2021/05/04 00:16:43;;;;;;;0.60;0.60;;;;;;;7.16;53.44;96550.16;29395;214;63005;-55
2021/05/04 00:17:14;;;;;;;0.50;0.50;;;;;;;7.13;53.43;96550.72;29395;236;63009;-55
2021/05/04 00:17:46;;;;;;;0.60;0.60;;;;;;;7.07;53.74;96551.81;29395;211;63004;-55
2021/05/04 00:18:17;;;;;;;0.60;0.60;;;;;;;7.02;53.58;96547.25;29395;228;63009;-55
2021/05/04 00:18:48;;;;;;;1.27;1.27;;;;;;;7.02;53.89;96559.94;29395;286;63004;-56
2021/05/04 00:19:21;;;;;;;0.60;0.60;;;;;;;7.05;53.80;96551.28;29395;220;63018;-55
2021/05/04 00:19:52;;;;;;;0.60;0.60;;;;;;;7.09;53.51;96549.66;29395;196;63004;-53
2021/05/04 00:20:23;;;;;;;0.60;0.60;;;;;;;7.09;53.68;96549.66;29394;196;64013;-56
2021/05/04 00:20:55;;;;;;;0.60;0.60;;;;;;;7.09;53.80;96548.84;29395;202;63004;-52
2021/05/04 00:21:28;;;;;;;0.60;0.60;;;;;;;7.11;53.77;96552.88;29395;197;63009;-56
2021/05/04 00:21:59;;;;;;;0.55;0.55;;;;;;;7.12;53.94;96556.37;29395;197;63005;-56
2021/05/04 00:22:30;;;;;;;0.60;0.60;;;;;;;7.07;53.84;96549.94;29395;207;63025;-55
2021/05/04 00:23:01;;;;;;;0.55;0.55;;;;;;;7.07;53.84;96551.81;29395;230;63005;-55
2021/05/04 00:23:32;;;;;;;0.50;0.50;;;;;;;7.05;53.86;96543.19;29395;197;63009;-55
2021/05/04 00:24:05;;;;;;;0.60;0.60;;;;;;;7.02;54.03;96543.75;29394;231;64009;-56
2021/05/04 00:24:37;;;;;;;0.55;0.55;;;;;;;7.02;54.16;96549.16;29395;198;63009;-55
2021/05/04 00:25:09;;;;;;;0.60;0.60;;;;;;;7.01;54.08;96542.94;29395;210;63009;-56
2021/05/04 00:25:41;;;;;;;0.60;0.60;;;;;;;7.06;54.10;96542.13;29395;234;63009;-55
2021/05/04 00:26:13;;;;;;;0.60;0.60;;;;;;;7.04;53.84;96546.97;29395;206;63004;-55
2021/05/04 00:26:44;;;;;;;0.60;0.60;;;;;;;7.05;54.08;96545.91;29395;199;63009;-55
2021/05/04 00:27:15;;;;;;;0.60;0.60;;;;;;;7.03;54.11;96535.38;29395;233;63004;-56
2021/05/04 00:27:47;;;;;;;0.60;0.60;;;;;;;7.00;54.05;96543.22;29394;202;64013;-55
2021/05/04 00:28:18;;;;;;;0.50;0.50;;;;;;;6.99;54.00;96538.91;29395;243;63005;-56
2021/05/04 00:28:49;;;;;;;0.50;0.50;;;;;;;7.02;54.15;96543.75;29395;219;63020;-55
2021/05/04 00:29:20;;;;;;;0.50;0.50;;;;;;;7.04;54.09;96536.19;29395;227;63005;-55
2021/05/04 00:29:51;;;;;;;0.55;0.55;;;;;;;7.04;54.22;96536.19;29395;202;63009;-55
2021/05/04 00:30:22;;;;;;;0.60;0.60;;;;;;;7.04;53.99;96530.81;29395;202;63005;-56
2021/05/04 00:30:54;;;;;;;0.60;0.60;;;;;;;7.05;54.19;96540.50;29395;218;63009;-55
2021/05/04 00:31:26;;;;;;;0.60;0.60;;;;;;;7.07;54.28;96538.34;29395;271;63005;-56
2021/05/04 00:31:57;;;;;;;0.60;0.60;;;;;;;7.07;53.92;96535.63;29394;204;64013;-55
2021/05/04 00:32:28;;;;;;;0.60;0.60;;;;;;;7.05;54.46;96533.22;29395;211;63007;-55
2021/05/04 00:32:59;;;;;;;0.60;0.60;;;;;;;7.05;54.13;96532.41;29395;234;63009;-55
2021/05/04 00:33:31;;;;;;;0.60;0.60;;;;;;;7.02;53.83;96528.38;29395;220;63004;-55
2021/05/04 00:34:03;;;;;;;0.60;0.60;;;;;;;7.02;54.17;96530.28;29395;223;63009;-55
2021/05/04 00:34:34;;;;;;;0.60;0.60;;;;;;;7.00;54.15;96525.16;29395;319;63004;-56
2021/05/04 00:35:06;;;;;;;0.60;0.60;;;;;;;7.02;54.19;96522.97;29395;237;63014;-55
2021/05/04 00:35:38;;;;;;;0.60;0.60;;;;;;;7.05;54.28;96527.03;29395;295;63005;-56
2021/05/04 00:36:10;;;;;;;0.60;0.60;;;;;;;7.08;54.09;96523.75;29395;277;63009;-55
2021/05/04 00:36:41;;;;;;;0.60;0.60;;;;;;;7.07;54.19;96524.84;29395;275;63005;-55
2021/05/04 00:37:13;;;;;;;0.60;0.60;;;;;;;7.07;53.93;96524.84;29394;238;64014;-55
2021/05/04 00:37:47;;;;;;;0.60;0.60;;;;;;;7.09;53.91;96517.28;29394;198;64009;-57
2021/05/04 00:38:20;;;;;;;0.60;0.60;;;;;;;7.05;54.16;96511.63;29395;367;63009;-56
2021/05/04 00:38:51;;;;;;;0.60;0.60;;;;;;;7.02;54.03;96512.19;29395;203;63005;-55
2021/05/04 00:39:26;;;;;;;0.50;0.50;;;;;;;7.02;54.21;96511.38;29395;338;63020;-55
2021/05/04 00:39:57;;;;;;;0.60;0.60;;;;;;;7.00;54.29;96511.66;29395;197;63004;-55
2021/05/04 00:40:28;;;;;;;0.60;0.60;;;;;;;6.98;54.29;96513.84;29395;239;63009;-56
2021/05/04 00:40:59;;;;;;;0.60;0.60;;;;;;;6.99;54.31;96509.25;29395;238;63004;-55
2021/05/04 00:41:31;;;;;;;0.60;0.60;;;;;;;6.97;54.07;96511.41;29395;239;63009;-56
2021/05/04 00:42:05;;;;;;;0.60;0.60;;;;;;;6.98;54.52;96510.31;29395;219;63004;-55
2021/05/04 00:42:37;;;;;;;0.60;0.60;;;;;;;6.99;54.33;96511.94;29394;211;64013;-55
2021/05/04 00:43:08;;;;;;;0.60;0.60;;;;;;;7.01;54.41;96507.06;29395;197;63005;-55
2021/05/04 00:43:44;;;;;;;0.50;0.50;;;;;;;7.01;54.56;96504.38;29395;199;63009;-54
2021/05/04 00:44:16;;;;;;;0.60;0.60;;;;;;;6.98;54.51;96504.94;29395;243;63005;-56
2021/05/04 00:44:47;;;;;;;0.60;0.60;;;;;;;6.95;54.52;96510.87;29395;231;63009;-56
2021/05/04 00:45:18;;;;;;;0.60;0.60;;;;;;;6.92;54.65;96511.47;29395;236;63005;-56
2021/05/04 00:45:49;;;;;;;0.60;0.60;;;;;;;6.91;54.58;96509.84;29395;244;63009;-56
2021/05/04 00:46:20;;;;;;;0.60;0.60;;;;;;;6.91;54.92;96516.06;29394;242;64009;-51
2021/05/04 00:46:51;;;;;;;0.60;0.60;;;;;;;6.90;55.44;96508.25;29395;239;63009;-55
2021/05/04 00:47:23;;;;;;;0.60;0.60;;;;;;;6.86;55.07;96517.97;29395;231;63008;-55
2021/05/04 00:47:54;;;;;;;0.60;0.60;;;;;;;6.81;55.56;96510.72;29395;229;63009;-55
2021/05/04 00:48:26;;;;;;;0.60;0.60;;;;;;;6.80;55.40;96519.06;29395;232;63010;-56
2021/05/04 00:48:57;;;;;;;0.60;0.60;;;;;;;6.78;55.25;96515.84;29395;212;63009;-55
2021/05/04 00:49:28;;;;;;;0.60;0.60;;;;;;;6.77;55.38;96514.22;29394;206;64009;-56
2021/05/04 00:49:59;;;;;;;0.60;0.60;;;;;;;6.80;55.47;96516.38;29395;236;63008;-55
2021/05/04 00:50:30;;;;;;;0.60;0.60;;;;;;;6.78;55.24;96507.75;29395;254;63004;-56
2021/05/04 00:51:03;;;;;;;0.60;0.60;;;;;;;6.77;55.34;96509.66;29395;239;63009;-56
2021/05/04 00:51:34;;;;;;;0.60;0.60;;;;;;;6.77;55.22;96511.53;29395;204;63005;-56
2021/05/04 00:52:06;;;;;;;0.55;0.55;;;;;;;6.75;55.37;96500.22;29395;237;63009;-56
2021/05/04 00:52:37;;;;;;;0.60;0.60;;;;;;;6.78;55.11;96511.25;29394;205;64009;-55
2021/05/04 00:53:09;;;;;;;0.60;0.60;;;;;;;6.80;55.05;96508.28;29395;316;63009;-55
2021/05/04 00:53:41;;;;;;;0.60;0.60;;;;;;;6.78;55.04;96511.25;29395;228;63005;-56
2021/05/04 00:54:14;;;;;;;0.60;0.60;;;;;;;6.78;54.98;96505.88;29395;237;63009;-54
2021/05/04 00:54:46;;;;;;;0.60;0.60;;;;;;;6.78;55.27;96510.47;29395;237;63005;-54
2021/05/04 00:55:20;;;;;;;0.60;0.60;;;;;;;6.76;55.12;96507.22;29394;203;64013;-54
2021/05/04 00:55:51;;;;;;;0.52;0.52;;;;;;;6.72;55.07;96507.78;29395;281;63004;-55
2021/05/04 00:56:24;;;;;;;0.50;0.50;;;;;;;6.70;55.04;96511.84;29395;238;63009;-56
2021/05/04 00:56:56;;;;;;;0.60;0.60;;;;;;;6.68;55.34;96509.41;29394;228;64009;-56
2021/05/04 00:57:28;;;;;;;0.60;0.60;;;;;;;6.68;55.37;96506.72;29395;198;63008;-55
2021/05/04 00:58:01;;;;;;;0.60;0.60;;;;;;;6.68;55.43;96511.31;29395;199;63004;-55
2021/05/04 00:58:39;;;;;;;0.60;0.60;;;;;;;6.68;55.61;96505.91;29395;217;63009;-55
2021/05/04 00:59:12;;;;;;;0.60;0.60;;;;;;;6.68;55.70;96512.09;29395;202;63005;-56
2021/05/04 00:59:44;;;;;;;0.60;0.60;;;;;;;6.68;55.54;96501.31;29395;216;63009;-55
2021/05/04 01:00:17;;;;;;;0.60;0.60;;;;;;;6.72;55.37;96502.37;29394;197;64025;-55
2021/05/04 01:00:48;;;;;;;0.60;0.60;;;;;;;6.74;55.35;96510.19;29395;293;63009;-55
2021/05/04 01:01:20;;;;;;;0.60;0.60;;;;;;;6.74;55.32;96507.50;29395;215;63005;-55
2021/05/04 01:01:55;;;;;;;0.60;0.60;;;;;;;6.71;55.08;96500.78;29395;224;63009;-55
2021/05/04 01:02:30;;;;;;;0.70;0.70;;;;;;;6.71;55.50;96500.78;29395;209;63004;-55
2021/05/04 01:03:03;;;;;;;0.60;0.60;;;;;;;6.75;55.23;96508.31;29395;234;63009;-55
2021/05/04 01:03:35;;;;;;;0.60;0.60;;;;;;;6.71;55.52;96500.78;29395;206;63004;-56
2021/05/04 01:04:07;;;;;;;0.60;0.60;;;;;;;6.70;55.51;96496.47;29395;234;63009;-55
2021/05/04 01:04:39;;;;;;;0.60;0.60;;;;;;;6.66;55.43;96487.31;29395;239;63004;-55
2021/05/04 01:05:11;;;;;;;0.60;0.60;;;;;;;6.69;55.56;96496.75;29394;295;64013;-55
2021/05/04 01:05:43;;;;;;;0.60;0.60;;;;;;;6.68;55.68;96493.25;29395;215;63004;-55
2021/05/04 01:06:14;;;;;;;0.60;0.60;;;;;;;6.68;55.57;96495.94;29395;228;63014;-56
2021/05/04 01:06:46;;;;;;;0.60;0.60;;;;;;;6.68;55.69;96492.44;29395;215;63005;-56
2021/05/04 01:07:18;;;;;;;0.60;0.60;;;;;;;6.66;55.59;96498.09;29394;229;64014;-55
2021/05/04 01:07:49;;;;;;;0.60;0.60;;;;;;;6.70;55.64;96493.78;29395;198;63005;-56
2021/05/04 01:08:20;;;;;;;0.50;0.50;;;;;;;6.68;55.32;96490.53;29395;233;63009;-55
2021/05/04 01:08:51;;;;;;;0.60;0.60;;;;;;;6.67;55.43;96493.50;29395;221;63005;-55
2021/05/04 01:09:22;;;;;;;0.60;0.60;;;;;;;6.62;55.80;96499.72;29395;357;63009;-55
2021/05/04 01:09:54;;;;;;;0.60;0.60;;;;;;;6.58;55.93;96490.62;29395;276;63005;-55
2021/05/04 01:10:27;;;;;;;0.60;0.60;;;;;;;6.53;56.21;96493.31;29395;220;63009;-55
2021/05/04 01:10:58;;;;;;;0.60;0.60;;;;;;;6.55;56.16;96495.75;29395;208;63004;-55
2021/05/04 01:11:30;;;;;;;0.60;0.60;;;;;;;6.54;56.19;96489.56;29394;208;64013;-55
2021/05/04 01:12:02;;;;;;;0.60;0.60;;;;;;;6.53;56.04;96492.53;29395;285;63004;-54
2021/05/04 01:12:34;;;;;;;0.60;0.60;;;;;;;6.53;56.23;96492.53;29395;386;63008;-55
2021/05/04 01:13:06;;;;;;;0.60;0.60;;;;;;;6.52;56.37;96496.28;29395;256;63004;-55
2021/05/04 01:13:38;;;;;;;0.60;0.60;;;;;;;6.53;56.22;96497.91;29394;247;64014;-55
2021/05/04 01:14:09;;;;;;;0.60;0.60;;;;;;;6.52;56.26;96493.59;29395;231;63005;-55
2021/05/04 01:14:40;;;;;;;0.50;0.50;;;;;;;6.57;56.10;96489.00;29395;209;63009;-56
2021/05/04 01:15:12;;;;;;;0.60;0.60;;;;;;;6.57;56.14;96488.19;29395;225;63005;-54
2021/05/04 01:15:44;;;;;;;0.60;0.60;;;;;;;6.55;56.01;96488.47;29395;236;63009;-55
2021/05/04 01:16:16;;;;;;;0.50;0.50;;;;;;;6.55;56.33;96491.16;29395;216;63005;-55
2021/05/04 01:16:53;;;;;;;0.60;0.60;;;;;;;6.53;56.38;96487.94;29395;197;63009;-55
2021/05/04 01:17:26;;;;;;;0.60;0.60;;;;;;;6.52;56.43;96494.41;29395;205;63005;-55
2021/05/04 01:17:58;;;;;;;0.60;0.60;;;;;;;6.47;56.91;96483.66;29395;197;63009;-55
2021/05/04 01:18:29;;;;;;;0.60;0.60;;;;;;;6.50;56.58;96490.38;29394;226;64009;-54
2021/05/04 01:19:00;;;;;;;0.60;0.60;;;;;;;6.52;56.36;96485.50;29395;277;63009;-55
2021/05/04 01:19:31;;;;;;;0.60;0.60;;;;;;;6.55;56.21;96475.00;29395;221;63004;-55
2021/05/04 01:20:04;;;;;;;0.88;0.88;;;;;;;6.58;55.98;96479.03;29395;269;63008;-55
2021/05/04 01:20:37;;;;;;;0.60;0.60;;;;;;;6.57;55.94;96483.59;29395;233;63004;-55
2021/05/04 01:21:08;;;;;;;0.60;0.60;;;;;;;6.55;56.12;96485.78;29395;198;63009;-55
2021/05/04 01:21:40;;;;;;;0.60;0.60;;;;;;;6.50;55.95;96483.09;29395;258;63001;-55
2021/05/04 01:22:13;;;;;;;0.60;0.60;;;;;;;6.55;55.96;96485.78;29395;202;63009;-55
2021/05/04 01:22:44;;;;;;;0.60;0.60;;;;;;;6.56;55.92;96483.88;29394;221;64009;-55
2021/05/04 01:23:15;;;;;;;0.60;0.60;;;;;;;6.56;55.79;96481.19;29395;242;63009;-56
2021/05/04 01:23:49;;;;;;;0.60;0.60;;;;;;;6.56;56.01;96481.19;29395;202;63005;-55
2021/05/04 01:24:21;;;;;;;0.60;0.60;;;;;;;6.53;56.54;96479.03;29395;274;63009;-55
2021/05/04 01:24:52;;;;;;;0.60;0.60;;;;;;;6.50;56.32;96480.41;29395;206;63004;-55
2021/05/04 01:25:23;;;;;;;0.60;0.60;;;;;;;6.50;56.05;96472.31;29395;277;63017;-55
2021/05/04 01:25:55;;;;;;;0.60;0.60;;;;;;;6.56;55.91;96471.22;29395;217;63015;-56
2021/05/04 01:26:26;;;;;;;0.60;0.60;;;;;;;6.64;55.58;96473.31;29395;212;63009;-56
2021/05/04 01:26:58;;;;;;;0.60;0.60;;;;;;;6.66;55.52;96468.44;29395;231;63004;-55
2021/05/04 01:27:30;;;;;;;0.60;0.60;;;;;;;6.69;55.43;96465.19;29395;196;63008;-56
2021/05/04 01:28:01;;;;;;;0.60;0.60;;;;;;;6.76;55.13;96469.47;29394;198;64008;-55
2021/05/04 01:28:32;;;;;;;0.60;0.60;;;;;;;6.75;55.01;96474.06;29395;216;63005;-55
2021/05/04 01:29:04;;;;;;;0.60;0.60;;;;;;;6.77;55.21;96461.12;29395;285;63005;-54
2021/05/04 01:29:35;;;;;;;0.60;0.60;;;;;;;6.76;55.00;96472.19;29395;214;63009;-53
2021/05/04 01:30:07;;;;;;;2.87;2.70;;;;;;;6.78;55.25;96461.91;29395;227;63005;-55
2021/05/04 01:30:38;;;;;;;1.52;1.52;;;;;;;6.80;54.87;96460.56;29395;238;63009;-55
2021/05/04 01:31:10;;;;;;;0.60;0.60;;;;;;;6.73;55.62;96460.84;29395;280;63005;-56
2021/05/04 01:31:42;;;;;;;0.50;0.50;;;;;;;6.69;55.12;96459.00;29394;212;64013;-55
2021/05/04 01:32:14;;;;;;;0.60;0.60;;;;;;;6.64;55.07;96457.13;29395;197;63004;-55
2021/05/04 01:32:45;;;;;;;0.70;0.70;;;;;;;6.61;55.50;96463.06;29395;226;63009;-53
2021/05/04 01:33:16;;;;;;;0.60;0.60;;;;;;;6.63;55.68;96460.91;29395;202;63000;-56
2021/05/04 01:33:47;;;;;;;0.60;0.60;;;;;;;6.63;55.60;96460.09;29395;231;63009;-55
2021/05/04 01:34:18;;;;;;;0.60;0.60;;;;;;;6.61;55.59;96463.06;29395;215;63004;-56
2021/05/04 01:34:49;;;;;;;0.60;0.60;;;;;;;6.60;55.43;96458.75;29395;237;63008;-55
2021/05/04 01:35:21;;;;;;;0.60;0.60;;;;;;;6.58;55.63;96463.66;29395;236;63005;-55
2021/05/04 01:35:52;;;;;;;0.60;0.60;;;;;;;6.60;55.51;96461.47;29395;247;63009;-54
2021/05/04 01:36:24;;;;;;;0.60;0.60;;;;;;;6.65;55.35;96458.75;29394;234;64009;-56
2021/05/04 01:36:55;;;;;;;0.60;0.60;;;;;;;6.66;55.52;96454.97;29395;230;63009;-55
2021/05/04 01:37:26;;;;;;;0.60;0.60;;;;;;;6.67;55.42;96451.19;29395;236;63012;-55
2021/05/04 01:38:02;;;;;;;0.60;0.60;;;;;;;6.65;55.04;96447.97;29395;229;63009;-55
2021/05/04 01:38:36;;;;;;;0.70;0.70;;;;;;;6.70;55.33;96456.03;29395;214;63005;-54
2021/05/04 01:39:09;;;;;;;0.60;0.60;;;;;;;6.72;55.32;96448.47;29395;236;63009;-56
2021/05/04 01:39:46;;;;;;;0.60;0.60;;;;;;;6.72;54.95;96450.34;29395;249;63004;-55
2021/05/04 01:40:19;;;;;;;0.60;0.60;;;;;;;6.72;55.04;96448.47;29395;208;63009;-55
2021/05/04 01:40:50;;;;;;;0.60;0.60;;;;;;;6.72;55.07;96448.47;29373;231;63004;-55
2021/05/04 01:41:21;;;;;;;0.60;0.60;;;;;;;6.76;55.06;96451.41;29394;196;64013;-56
2021/05/04 01:41:52;;;;;;;0.60;0.60;;;;;;;6.76;54.86;96447.91;29395;196;63009;-55
2021/05/04 01:42:23;;;;;;;0.60;0.60;;;;;;;6.75;55.12;96451.69;29394;220;64013;-55
2021/05/04 01:42:54;;;;;;;0.50;0.50;;;;;;;6.72;55.17;96443.06;29395;209;63005;-56
2021/05/04 01:43:26;;;;;;;0.50;0.50;;;;;;;6.71;54.92;96451.44;29395;216;63009;-56
2021/05/04 01:44:00;;;;;;;2.00;1.90;;;;;;;6.69;54.98;96443.63;29395;224;63005;-55
2021/05/04 01:44:31;;;;;;;0.88;0.88;;;;;;;6.72;55.04;96442.25;29395;279;63009;-55
2021/05/04 01:45:03;;;;;;;0.60;0.60;;;;;;;6.79;55.09;96444.66;29395;225;63005;-56
2021/05/04 01:45:34;;;;;;;0.60;0.60;;;;;;;6.80;55.00;96438.97;29394;197;64013;-55
2021/05/04 01:46:05;;;;;;;0.60;0.60;;;;;;;6.80;55.14;96444.38;29395;286;63005;-55
2021/05/04 01:46:37;;;;;;;0.60;0.60;;;;;;;6.82;54.62;96441.41;29395;202;63009;-55
2021/05/04 01:47:09;;;;;;;0.60;0.60;;;;;;;6.81;54.59;96445.19;29395;224;63004;-55
2021/05/04 01:47:41;;;;;;;0.60;0.60;;;;;;;6.77;55.11;96438.72;29395;224;63009;-55
2021/05/04 01:48:13;;;;;;;0.60;0.60;;;;;;;6.73;55.00;96436.59;29395;220;63004;-55
2021/05/04 01:48:44;;;;;;;0.60;0.60;;;;;;;6.70;55.06;96431.75;29395;197;63009;-54
2021/05/04 01:49:19;;;;;;;0.60;0.60;;;;;;;6.70;55.18;96442.53;29395;238;63004;-55
2021/05/04 01:49:50;;;;;;;0.60;0.60;;;;;;;6.68;55.27;96435.81;29395;269;63008;-55
2021/05/04 01:50:21;;;;;;;0.60;0.60;;;;;;;6.68;54.99;96439.31;29394;245;64009;-56
2021/05/04 01:50:52;;;;;;;0.60;0.60;;;;;;;6.71;54.81;96433.37;29395;219;63009;-56
2021/05/04 01:51:25;;;;;;;0.60;0.60;;;;;;;6.71;54.67;96430.69;29395;239;63005;-56
2021/05/04 01:51:58;;;;;;;0.50;0.50;;;;;;;6.70;54.84;96439.84;29395;202;63009;-56
2021/05/04 01:52:29;;;;;;;0.60;0.60;;;;;;;6.69;54.95;96432.03;29395;203;63005;-55
2021/05/04 01:53:00;;;;;;;0.60;0.60;;;;;;;6.73;55.19;96436.59;29395;234;63009;-55
2021/05/04 01:53:31;;;;;;;0.60;0.60;;;;;;;6.76;54.90;96429.84;29395;197;63005;-55
2021/05/04 01:54:03;;;;;;;0.57;0.57;;;;;;;6.75;54.86;96435.50;29394;239;64013;-55
2021/05/04 01:54:35;;;;;;;0.60;0.60;;;;;;;6.77;54.56;96433.34;29394;209;64009;-56
2021/05/04 01:55:08;;;;;;;0.60;0.60;;;;;;;6.73;55.00;96428.50;29395;214;63009;-54
2021/05/04 01:55:39;;;;;;;0.60;0.60;;;;;;;6.75;54.66;96436.31;29395;280;63004;-55
2021/05/04 01:56:10;;;;;;;0.60;0.60;;;;;;;6.72;55.05;96424.19;29395;232;63020;-55
2021/05/04 01:56:41;;;;;;;0.60;0.60;;;;;;;6.77;54.68;96427.94;29395;210;63004;-56
2021/05/04 01:57:13;;;;;;;0.60;0.60;;;;;;;6.78;54.45;96424.97;29395;206;63008;-55
2021/05/04 01:57:44;;;;;;;0.60;0.60;;;;;;;6.79;54.38;96423.09;29394;208;64008;-53
2021/05/04 01:58:17;;;;;;;0.70;0.70;;;;;;;6.79;54.58;96425.78;29395;207;63025;-52
2021/05/04 01:58:48;;;;;;;0.60;0.60;;;;;;;6.73;54.69;96417.72;29395;202;63005;-55
2021/05/04 01:59:21;;;;;;;0.60;0.60;;;;;;;6.71;54.52;96419.88;29395;222;63009;-54
2021/05/04 01:59:53;;;;;;;0.60;0.60;;;;;;;6.68;54.91;96420.44;29395;223;63005;-56
2021/05/04 02:00:24;;;;;;;0.60;0.60;;;;;;;6.67;54.82;96418.03;29395;203;63009;-55
2021/05/04 02:00:55;;;;;;;0.60;0.60;;;;;;;6.65;55.17;96421.00;29395;250;63005;-54
2021/05/04 02:01:26;;;;;;;0.60;0.60;;;;;;;6.67;55.26;96418.03;29394;204;64013;-55
2021/05/04 02:01:58;;;;;;;0.60;0.60;;;;;;;6.67;55.13;96418.84;29395;267;63005;-55
2021/05/04 02:02:29;;;;;;;0.60;0.60;;;;;;;6.69;54.83;96422.06;29394;207;64013;-55
2021/05/04 02:03:00;;;;;;;0.50;0.50;;;;;;;6.68;54.94;96420.44;29395;224;63004;-56
2021/05/04 02:03:31;;;;;;;0.60;0.60;;;;;;;6.68;54.65;96420.44;29395;279;63009;-55
2021/05/04 02:04:03;;;;;;;0.60;0.60;;;;;;;6.69;55.01;96421.25;29395;206;63004;-55
2021/05/04 02:04:34;;;;;;;0.60;0.60;;;;;;;6.70;55.01;96417.47;29394;221;63998;-55
2021/05/04 02:05:07;;;;;;;0.60;0.60;;;;;;;6.68;54.85;96425.03;29395;233;63004;-55
2021/05/04 02:05:38;;;;;;;0.60;0.60;;;;;;;6.66;55.11;96422.59;29395;288;63009;-55
2021/05/04 02:06:11;;;;;;;0.60;0.60;;;;;;;6.66;55.24;96413.72;29395;219;63005;-56
2021/05/04 02:06:43;;;;;;;0.60;0.60;;;;;;;6.76;54.74;96415.56;29395;217;63009;-56
2021/05/04 02:07:15;;;;;;;0.50;0.50;;;;;;;6.82;54.57;96419.81;29395;224;63000;-55
2021/05/04 02:07:47;;;;;;;0.60;0.60;;;;;;;6.77;55.20;96412.56;29394;197;64013;-55
2021/05/04 02:08:18;;;;;;;0.60;0.60;;;;;;;6.75;54.92;96411.25;29395;228;63005;-55
2021/05/04 02:08:49;;;;;;;0.60;0.60;;;;;;;6.69;54.96;96411.28;29395;208;63009;-55
2021/05/04 02:09:20;;;;;;;0.60;0.60;;;;;;;6.68;55.08;96415.06;29395;202;63005;-54
2021/05/04 02:09:51;;;;;;;0.50;0.50;;;;;;;6.67;54.89;96407.25;29395;229;63009;-55
2021/05/04 02:10:22;;;;;;;0.60;0.60;;;;;;;6.69;54.80;96411.28;29395;205;63004;-53
2021/05/04 02:10:54;;;;;;;0.60;0.60;;;;;;;6.70;54.70;96412.06;29395;206;63009;-54
2021/05/04 02:11:25;;;;;;;0.50;0.50;;;;;;;6.67;54.97;96408.03;29395;241;63004;-54
2021/05/04 02:11:57;;;;;;;0.60;0.60;;;;;;;6.73;54.75;96412.31;29395;288;63009;-55
2021/05/04 02:12:28;;;;;;;0.60;0.60;;;;;;;6.76;54.77;96420.94;29395;226;63004;-55
2021/05/04 02:12:59;;;;;;;0.60;0.60;;;;;;;6.76;54.82;96412.84;29394;290;64014;-54
2021/05/04 02:13:30;;;;;;;0.70;0.70;;;;;;;6.72;55.44;96405.31;29395;245;63005;-55
2021/05/04 02:14:02;;;;;;;0.60;0.60;;;;;;;6.70;55.10;96415.56;29395;271;63009;-55
2021/05/04 02:14:34;;;;;;;0.60;0.60;;;;;;;6.68;54.99;96406.97;29395;238;63005;-55
2021/05/04 02:15:06;;;;;;;0.60;0.60;;;;;;;6.70;54.95;96407.50;29395;235;63009;-55
2021/05/04 02:15:37;;;;;;;0.60;0.60;;;;;;;6.69;54.82;96405.88;29395;248;63005;-55
2021/05/04 02:16:08;;;;;;;0.60;0.60;;;;;;;6.68;55.00;96406.16;29395;212;63009;-55
2021/05/04 02:16:42;;;;;;;0.60;0.60;;;;;;;6.62;55.25;96405.38;29395;196;63005;-55
2021/05/04 02:17:13;;;;;;;0.52;0.52;;;;;;;6.60;55.37;96401.34;29395;204;63009;-55
2021/05/04 02:17:44;;;;;;;0.60;0.60;;;;;;;6.56;55.45;96403.81;29394;238;64009;-55
2021/05/04 02:18:15;;;;;;;0.60;0.60;;;;;;;6.56;55.45;96406.53;29395;219;63009;-55
2021/05/04 02:18:47;;;;;;;0.60;0.60;;;;;;;6.60;55.12;96402.16;29395;214;63011;-56
2021/05/04 02:19:20;;;;;;;0.60;0.60;;;;;;;6.61;55.17;96397.56;29395;202;63009;-55
2021/05/04 02:19:53;;;;;;;0.50;0.50;;;;;;;6.64;55.14;96391.62;29395;205;63004;-55
2021/05/04 02:20:24;;;;;;;0.60;0.60;;;;;;;6.63;55.02;96395.41;29395;257;63008;-55
2021/05/04 02:20:57;;;;;;;0.60;0.60;;;;;;;6.62;54.98;96386.50;29395;222;63001;-55
2021/05/04 02:21:32;;;;;;;0.60;0.60;;;;;;;6.64;54.81;96384.34;29395;204;63009;-55
2021/05/04 02:22:05;;;;;;;0.60;0.60;;;;;;;6.62;55.04;96383.81;29395;229;63005;-55
2021/05/04 02:22:36;;;;;;;0.60;0.60;;;;;;;6.63;55.08;96385.44;29395;286;63009;-55
2021/05/04 02:23:08;;;;;;;0.60;0.60;;;;;;;6.64;54.97;96376.25;29394;196;64009;-55
2021/05/04 02:23:39;;;;;;;0.60;0.60;;;;;;;6.64;54.94;96386.22;29395;318;63009;-56
2021/05/04 02:24:11;;;;;;;0.50;0.50;;;;;;;6.65;54.82;96383.25;29373;212;63005;-56
2021/05/04 02:24:42;;;;;;;0.50;0.50;;;;;;;6.65;55.11;96379.75;29395;198;63009;-55
2021/05/04 02:25:14;;;;;;;0.60;0.60;;;;;;;6.73;54.86;96384.56;29395;225;63004;-55
2021/05/04 02:25:46;;;;;;;0.50;0.50;;;;;;;6.75;54.64;96381.59;29395;206;63009;-55
2021/05/04 02:26:18;;;;;;;0.60;0.60;;;;;;;6.79;54.69;96383.44;29395;221;63004;-55
2021/05/04 02:26:49;;;;;;;0.60;0.60;;;;;;;6.82;54.54;96382.06;29395;246;63009;-55
2021/05/04 02:27:20;;;;;;;0.50;0.50;;;;;;;6.81;54.41;96380.47;29395;219;63004;-55
2021/05/04 02:27:51;;;;;;;0.60;0.60;;;;;;;6.81;54.45;96378.56;29395;210;63008;-55
2021/05/04 02:28:22;;;;;;;0.60;0.60;;;;;;;6.79;54.26;96382.63;29394;232;64009;-55
2021/05/04 02:28:53;;;;;;;0.60;0.60;;;;;;;6.78;54.53;96381.84;29395;226;63009;-55
2021/05/04 02:29:24;;;;;;;1.02;1.02;;;;;;;6.76;54.75;96377.81;29395;245;63010;-56
2021/05/04 02:29:56;;;;;;;0.50;0.50;;;;;;;6.72;54.70;96383.75;29395;212;63009;-55
2021/05/04 02:30:27;;;;;;;0.50;0.50;;;;;;;6.70;54.94;96383.22;29395;232;63005;-55
2021/05/04 02:30:58;;;;;;;0.50;0.50;;;;;;;6.68;54.99;96388.09;29395;206;63020;-55
2021/05/04 02:31:30;;;;;;;0.60;0.60;;;;;;;6.67;55.01;96385.69;29395;228;63004;-55
2021/05/04 02:32:01;;;;;;;0.60;0.60;;;;;;;6.68;55.34;96387.28;29395;248;63009;-55
2021/05/04 02:32:35;;;;;;;0.52;0.52;;;;;;;6.69;54.75;96384.31;29395;198;63009;-56
2021/05/04 02:33:06;;;;;;;0.60;0.60;;;;;;;6.68;54.96;96385.41;29395;212;63009;-55
2021/05/04 02:33:39;;;;;;;0.60;0.60;;;;;;;6.64;55.04;96381.66;29394;202;64009;-56